www.hobby-wetter-faasend.de
Wetterdaten: aktuell Mittwoch, 26.06.2019 02:00
Datum Zeit Temp. A. Temp. A. min Temp. A. max Feuchte A. Luftdruck Regen Wind Richtung Richtung Sonnenschein Taupunkt Windchill Windben
26.06.2019 02:00 20,1 C 20,1 C 20,3 C 81 % 1019,8 hPa 0,0 l/m 0,0 km/h (0 Bft) S-SW 196 0 min 16,7 C 20,1 C 0,0 km/h (0 Bft)
26.06.2019 01:45 20,3 C 20,3 C 20,6 C 80 % 1019,7 hPa 0,0 l/m 0,0 km/h (0 Bft) S-SW 196 0 min 16,7 C 20,3 C 0,0 km/h (0 Bft)
26.06.2019 01:30 20,6 C 20,6 C 20,8 C 79 % 1019,8 hPa 0,0 l/m 0,0 km/h (0 Bft) S-SW 196 0 min 16,8 C 20,6 C 0,0 km/h (0 Bft)
26.06.2019 01:15 20,8 C 20,8 C 21,2 C 79 % 1019,8 hPa 0,0 l/m 0,0 km/h (0 Bft) S-SW 196 0 min 17,0 C 20,8 C 1,6 km/h (1 Bft)
26.06.2019 01:00 21,2 C 21,2 C 21,5 C 78 % 1019,7 hPa 0,0 l/m 0,0 km/h (0 Bft) S-SW 196 0 min 17,2 C 21,2 C 0,0 km/h (0 Bft)
26.06.2019 00:45 21,5 C 21,5 C 21,8 C 77 % 1019,6 hPa 0,0 l/m 0,0 km/h (0 Bft) S-SW 196 0 min 17,3 C 21,5 C 0,0 km/h (0 Bft)
26.06.2019 00:30 21,8 C 21,8 C 22,2 C 75 % 1019,6 hPa 0,0 l/m 0,0 km/h (0 Bft) S-SW 196 0 min 17,2 C 21,8 C 0,0 km/h (0 Bft)
26.06.2019 00:15 22,2 C 22,2 C 22,5 C 73 % 1019,4 hPa 0,0 l/m 0,0 km/h (0 Bft) S-SW 196 0 min 17,1 C 22,2 C 0,0 km/h (0 Bft)
26.06.2019 00:00 22,5 C 22,5 C 22,8 C 73 % 1019,4 hPa 0,0 l/m 0,0 km/h (0 Bft) S-SW 196 0 min 17,4 C 22,5 C 0,0 km/h (0 Bft)
25.06.2019 23:45 22,8 C 22,8 C 23,2 C 72 % 1019,3 hPa 0,0 l/m 0,0 km/h (0 Bft) S-SW 196 0 min 17,5 C 22,8 C 0,0 km/h (0 Bft)
25.06.2019 23:30 23,2 C 23,2 C 23,6 C 71 % 1019,2 hPa 0,0 l/m 0,0 km/h (0 Bft) S-SW 196 0 min 17,6 C 23,2 C 0,0 km/h (0 Bft)
25.06.2019 23:15 23,6 C 23,6 C 24,1 C 70 % 1018,9 hPa 0,0 l/m 0,0 km/h (0 Bft) S-SW 196 0 min 17,8 C 23,6 C 0,0 km/h (0 Bft)
25.06.2019 23:00 24,1 C 24,1 C 24,7 C 69 % 1018,8 hPa 0,0 l/m 0,0 km/h (0 Bft) S-SW 196 0 min 18,0 C 24,1 C 1,6 km/h (1 Bft)
25.06.2019 22:45 24,7 C 24,7 C 25,3 C 66 % 1018,7 hPa 0,0 l/m 0,0 km/h (0 Bft) S-SW 196 0 min 17,9 C 24,7 C 1,6 km/h (1 Bft)
25.06.2019 22:30 25,3 C 25,3 C 26,1 C 65 % 1018,6 hPa 0,0 l/m 0,0 km/h (0 Bft) S-SW 196 0 min 18,2 C 25,3 C 1,6 km/h (1 Bft)
25.06.2019 22:15 26,1 C 26,1 C 26,9 C 63 % 1018,5 hPa 0,0 l/m 0,0 km/h (0 Bft) S-SW 196 0 min 18,5 C 26,1 C 0,0 km/h (0 Bft)
25.06.2019 22:00 26,9 C 26,9 C 27,6 C 61 % 1018,4 hPa 0,0 l/m 0,0 km/h (0 Bft) S-SW 196 0 min 18,7 C 26,9 C 0,0 km/h (0 Bft)
25.06.2019 21:45 27,6 C 27,6 C 28,4 C 59 % 1018,2 hPa 0,0 l/m 0,0 km/h (0 Bft) S-SW 196 0 min 18,8 C 27,6 C 0,0 km/h (0 Bft)
25.06.2019 21:30 28,4 C 28,4 C 29,1 C 56 % 1017,8 hPa 0,0 l/m 0,0 km/h (0 Bft) S-SW 196 0 min 18,8 C 28,4 C 0,0 km/h (0 Bft)
25.06.2019 21:15 29,1 C 29,1 C 29,8 C 54 % 1017,8 hPa 0,0 l/m 0,0 km/h (0 Bft) S-SW 196 0 min 18,8 C 29,1 C 0,0 km/h (0 Bft)
25.06.2019 21:00 29,8 C 29,8 C 30,4 C 52 % 1017,7 hPa 0,0 l/m 0,0 km/h (0 Bft) S-SW 196 0 min 18,9 C 29,8 C 0,0 km/h (0 Bft)
25.06.2019 20:45 30,4 C 30,4 C 31,1 C 49 % 1017,6 hPa 0,0 l/m 0,0 km/h (0 Bft) S-SW 196 0 min 18,5 C 30,4 C 1,6 km/h (1 Bft)
25.06.2019 20:30 31,1 C 31,1 C 31,8 C 47 % 1017,6 hPa 0,0 l/m 0,0 km/h (0 Bft) S-SW 196 0 min 18,4 C 31,1 C 1,6 km/h (1 Bft)
25.06.2019 20:15 31,8 C 31,8 C 32,4 C 43 % 1017,5 hPa 0,0 l/m 0,0 km/h (0 Bft) S-SW 196 0 min 17,6 C 31,8 C 1,6 km/h (1 Bft)
25.06.2019 20:00 32,4 C 32,4 C 33,3 C 40 % 1017,4 hPa 0,0 l/m 0,4 km/h (0 Bft) S-SW 196 0 min 17,0 C 32,4 C 8,0 km/h (2 Bft)
25.06.2019 19:45 33,3 C 33,3 C 34,1 C 39 % 1017,3 hPa 0,0 l/m 0,8 km/h (0 Bft) SW 219 0 min 17,4 C 33,3 C 8,0 km/h (2 Bft)
25.06.2019 19:30 34,1 C 34,1 C 34,7 C 37 % 1017,2 hPa 0,0 l/m 1,1 km/h (1 Bft) S 179 0 min 17,3 C 34,1 C 9,7 km/h (2 Bft)
25.06.2019 19:15 34,7 C 34,7 C 35,1 C 37 % 1017,2 hPa 0,0 l/m 2,3 km/h (1 Bft) S 190 0 min 17,8 C 34,7 C 12,9 km/h (3 Bft)
25.06.2019 19:00 35,1 C 35,1 C 35,2 C 36 % 1017,0 hPa 0,0 l/m 4,8 km/h (1 Bft) S-SO 154 0 min 17,7 C 35,1 C 16,1 km/h (3 Bft)
25.06.2019 18:45 35,2 C 35,2 C 35,2 C 37 % 1017,0 hPa 0,0 l/m 0,8 km/h (0 Bft) S 177 0 min 18,3 C 35,2 C 8,0 km/h (2 Bft)
25.06.2019 18:30 35,2 C 35,2 C 35,3 C 35 % 1016,9 hPa 0,0 l/m 1,2 km/h (1 Bft) SW 215 0 min 17,4 C 35,2 C 9,7 km/h (2 Bft)
25.06.2019 18:15 35,2 C 35,0 C 35,2 C 33 % 1016,8 hPa 0,0 l/m 1,4 km/h (1 Bft) SW 231 0 min 16,5 C 35,2 C 11,3 km/h (2 Bft)
25.06.2019 18:00 35,0 C 35,0 C 35,1 C 34 % 1016,8 hPa 0,0 l/m 1,9 km/h (1 Bft) SW 235 0 min 16,8 C 35,0 C 12,9 km/h (3 Bft)
25.06.2019 17:45 35,0 C 34,7 C 35,0 C 33 % 1016,9 hPa 0,0 l/m 2,6 km/h (1 Bft) SW 227 0 min 16,3 C 35,0 C 12,9 km/h (3 Bft)
25.06.2019 17:30 34,7 C 34,6 C 34,8 C 35 % 1017,0 hPa 0,0 l/m 2,8 km/h (1 Bft) S-SO 148 0 min 16,9 C 34,7 C 16,1 km/h (3 Bft)
25.06.2019 17:15 34,6 C 34,6 C 34,8 C 33 % 1017,0 hPa 0,0 l/m 4,7 km/h (1 Bft) S 169 0 min 15,9 C 34,6 C 17,7 km/h (3 Bft)
25.06.2019 17:00 34,8 C 34,8 C 35,0 C 32 % 1017,1 hPa 0,0 l/m 4,8 km/h (1 Bft) S-SW 192 0 min 15,6 C 34,8 C 17,7 km/h (3 Bft)
25.06.2019 16:45 35,0 C 35,0 C 35,1 C 30 % 1017,3 hPa 0,0 l/m 6,7 km/h (2 Bft) S-SW 201 0 min 14,8 C 35,0 C 22,5 km/h (4 Bft)
25.06.2019 16:30 35,1 C 35,1 C 35,2 C 34 % 1017,2 hPa 0,0 l/m 5,1 km/h (1 Bft) SO 130 0 min 16,8 C 35,1 C 22,5 km/h (4 Bft)
25.06.2019 16:15 35,1 C 35,1 C 35,2 C 33 % 1017,2 hPa 0,0 l/m 8,1 km/h (2 Bft) S-SO 163 0 min 16,4 C 35,1 C 20,9 km/h (4 Bft)
25.06.2019 16:00 35,2 C 35,1 C 35,2 C 33 % 1017,1 hPa 0,0 l/m 6,2 km/h (2 Bft) S-SO 163 0 min 16,5 C 35,2 C 22,5 km/h (4 Bft)
25.06.2019 15:45 35,2 C 35,2 C 35,4 C 34 % 1017,1 hPa 0,0 l/m 8,3 km/h (2 Bft) S-SW 199 0 min 16,9 C 35,2 C 27,4 km/h (4 Bft)
25.06.2019 15:30 35,4 C 35,1 C 35,4 C 34 % 1017,2 hPa 0,0 l/m 4,6 km/h (1 Bft) SO 139 0 min 17,1 C 35,4 C 20,9 km/h (4 Bft)
25.06.2019 15:15 35,1 C 34,9 C 35,1 C 35 % 1017,2 hPa 0,0 l/m 3,8 km/h (1 Bft) W-SW 244 0 min 17,3 C 35,1 C 17,7 km/h (3 Bft)
25.06.2019 15:00 34,9 C 34,8 C 34,9 C 33 % 1017,1 hPa 0,0 l/m 7,2 km/h (2 Bft) S 169 0 min 16,2 C 34,9 C 27,4 km/h (4 Bft)
25.06.2019 14:45 34,8 C 34,8 C 35,1 C 35 % 1017,1 hPa 0,0 l/m 8,4 km/h (2 Bft) S 187 0 min 17,0 C 34,8 C 29,0 km/h (5 Bft)
25.06.2019 14:30 35,0 C 34,9 C 35,1 C 38 % 1017,1 hPa 0,0 l/m 7,2 km/h (2 Bft) S 173 0 min 18,5 C 35,0 C 24,1 km/h (4 Bft)
25.06.2019 14:15 34,9 C 34,6 C 34,9 C 38 % 1017,1 hPa 0,0 l/m 4,8 km/h (1 Bft) O 92 0 min 18,4 C 34,9 C 17,7 km/h (3 Bft)
25.06.2019 14:00 34,6 C 34,3 C 34,6 C 40 % 1017,1 hPa 0,0 l/m 6,3 km/h (2 Bft) S 182 0 min 19,0 C 34,6 C 19,3 km/h (3 Bft)
25.06.2019 13:45 34,3 C 33,9 C 34,3 C 41 % 1017,0 hPa 0,0 l/m 3,7 km/h (1 Bft) SW 219 0 min 19,1 C 34,3 C 12,9 km/h (3 Bft)
25.06.2019 13:30 33,9 C 33,7 C 33,9 C 41 % 1017,1 hPa 0,0 l/m 6,3 km/h (2 Bft) S 187 0 min 18,8 C 33,9 C 20,9 km/h (4 Bft)
25.06.2019 13:15 33,7 C 33,3 C 33,7 C 42 % 1017,2 hPa 0,0 l/m 6,1 km/h (2 Bft) SO 142 0 min 19,0 C 33,7 C 19,3 km/h (3 Bft)
25.06.2019 13:00 33,3 C 33,0 C 33,3 C 44 % 1017,2 hPa 0,0 l/m 2,6 km/h (1 Bft) S-SW 207 0 min 19,4 C 33,3 C 14,5 km/h (3 Bft)
25.06.2019 12:45 33,0 C 32,5 C 33,0 C 44 % 1017,2 hPa 0,0 l/m 3,2 km/h (1 Bft) SW 223 0 min 19,1 C 33,0 C 14,5 km/h (3 Bft)
25.06.2019 12:30 32,5 C 32,2 C 32,5 C 46 % 1017,3 hPa 0,0 l/m 3,2 km/h (1 Bft) S-SO 163 0 min 19,4 C 32,5 C 14,5 km/h (3 Bft)
25.06.2019 12:15 32,2 C 31,8 C 32,2 C 46 % 1017,4 hPa 0,0 l/m 4,0 km/h (1 Bft) S 178 0 min 19,1 C 32,2 C 19,3 km/h (3 Bft)
25.06.2019 12:00 31,8 C 31,4 C 31,8 C 48 % 1017,4 hPa 0,0 l/m 2,6 km/h (1 Bft) S-SW 212 0 min 19,4 C 31,8 C 14,5 km/h (3 Bft)
25.06.2019 11:45 31,4 C 31,0 C 31,4 C 49 % 1017,3 hPa 0,0 l/m 2,7 km/h (1 Bft) SW 230 0 min 19,4 C 31,4 C 14,5 km/h (3 Bft)
25.06.2019 11:30 31,0 C 30,6 C 31,0 C 50 % 1017,4 hPa 0,0 l/m 3,0 km/h (1 Bft) S-SW 200 0 min 19,3 C 31,0 C 17,7 km/h (3 Bft)
25.06.2019 11:15 30,6 C 30,0 C 30,6 C 53 % 1017,4 hPa 0,0 l/m 2,1 km/h (1 Bft) S 169 0 min 19,9 C 30,6 C 11,3 km/h (2 Bft)
25.06.2019 11:00 30,0 C 29,6 C 30,0 C 53 % 1017,3 hPa 0,0 l/m 2,3 km/h (1 Bft) S 184 0 min 19,4 C 30,0 C 12,9 km/h (3 Bft)
25.06.2019 10:45 29,6 C 29,3 C 29,6 C 54 % 1017,2 hPa 0,0 l/m 1,2 km/h (1 Bft) S-SO 161 0 min 19,3 C 29,6 C 8,0 km/h (2 Bft)
25.06.2019 10:30 29,3 C 29,3 C 29,3 C 56 % 1017,1 hPa 0,0 l/m 2,9 km/h (1 Bft) S-SW 200 0 min 19,6 C 29,3 C 14,5 km/h (3 Bft)
25.06.2019 10:15 29,3 C 28,9 C 29,3 C 55 % 1017,1 hPa 0,0 l/m 2,4 km/h (1 Bft) SW 215 0 min 19,3 C 29,3 C 16,1 km/h (3 Bft)
25.06.2019 10:00 28,9 C 28,1 C 28,9 C 56 % 1017,0 hPa 0,0 l/m 2,1 km/h (1 Bft) S-SW 195 0 min 19,2 C 28,9 C 9,7 km/h (2 Bft)
25.06.2019 09:45 28,1 C 27,3 C 28,1 C 58 % 1017,0 hPa 0,0 l/m 1,7 km/h (1 Bft) SO 128 0 min 19,0 C 28,1 C 11,3 km/h (2 Bft)
25.06.2019 09:30 27,3 C 26,7 C 27,3 C 61 % 1016,9 hPa 0,0 l/m 2,5 km/h (1 Bft) SO 132 0 min 19,1 C 27,3 C 11,3 km/h (2 Bft)
25.06.2019 09:15 26,7 C 26,3 C 26,7 C 63 % 1016,8 hPa 0,0 l/m 0,6 km/h (0 Bft) S 180 0 min 19,1 C 26,7 C 4,8 km/h (1 Bft)
25.06.2019 09:00 26,3 C 25,8 C 26,3 C 65 % 1016,8 hPa 0,0 l/m 0,4 km/h (0 Bft) SO 135 0 min 19,2 C 26,3 C 8,0 km/h (2 Bft)
25.06.2019 08:45 25,8 C 25,2 C 25,8 C 65 % 1016,9 hPa 0,0 l/m 1,4 km/h (1 Bft) O 84 0 min 18,7 C 25,8 C 6,4 km/h (2 Bft)
25.06.2019 08:30 25,2 C 24,4 C 25,2 C 67 % 1016,9 hPa 0,0 l/m 0,2 km/h (0 Bft) S-SO 148 0 min 18,6 C 25,2 C 4,8 km/h (1 Bft)
25.06.2019 08:16 24,4 C 22,9 C 24,4 C 70 % 1016,9 hPa 0,0 l/m 0,0 km/h (0 Bft) S 173 0 min 18,6 C 24,4 C 1,6 km/h (1 Bft)
25.06.2019 08:00 22,9 C 21,6 C 22,9 C 78 % 1016,9 hPa 0,0 l/m 0,0 km/h (0 Bft) S 173 0 min 18,9 C 22,9 C 1,6 km/h (1 Bft)
25.06.2019 07:45 21,6 C 20,4 C 21,6 C 83 % 1016,7 hPa 0,0 l/m 0,0 km/h (0 Bft) S 173 0 min 18,6 C 21,6 C 0,0 km/h (0 Bft)
25.06.2019 07:30 20,4 C 19,6 C 20,4 C 89 % 1016,6 hPa 0,0 l/m 0,0 km/h (0 Bft) S 173 0 min 18,5 C 20,4 C 0,0 km/h (0 Bft)
25.06.2019 07:15 19,6 C 19,1 C 19,6 C 90 % 1016,4 hPa 0,0 l/m 0,0 km/h (0 Bft) S 173 0 min 17,9 C 19,6 C 0,0 km/h (0 Bft)
25.06.2019 07:00 19,1 C 18,6 C 19,1 C 90 % 1016,3 hPa 0,0 l/m 0,0 km/h (0 Bft) S 173 0 min 17,4 C 19,1 C 0,0 km/h (0 Bft)
25.06.2019 06:45 18,6 C 18,2 C 18,6 C 90 % 1016,1 hPa 0,0 l/m 0,0 km/h (0 Bft) S 173 0 min 16,9 C 18,6 C 0,0 km/h (0 Bft)
25.06.2019 06:30 18,2 C 18,2 C 18,2 C 88 % 1016,1 hPa 0,0 l/m 0,0 km/h (0 Bft) S 173 0 min 16,2 C 18,2 C 0,0 km/h (0 Bft)
25.06.2019 06:15 18,2 C 18,2 C 18,2 C 88 % 1015,9 hPa 0,0 l/m 0,0 km/h (0 Bft) S 173 0 min 16,2 C 18,2 C 1,6 km/h (1 Bft)
25.06.2019 06:00 18,2 C 18,2 C 18,3 C 87 % 1015,8 hPa 0,0 l/m 0,0 km/h (0 Bft) S 173 0 min 16,0 C 18,2 C 0,0 km/h (0 Bft)
25.06.2019 05:45 18,3 C 18,3 C 18,6 C 86 % 1015,6 hPa 0,0 l/m 0,0 km/h (0 Bft) S 173 0 min 15,9 C 18,3 C 0,0 km/h (0 Bft)
25.06.2019 05:30 18,6 C 18,6 C 18,8 C 85 % 1015,6 hPa 0,0 l/m 0,0 km/h (0 Bft) S 173 0 min 16,0 C 18,6 C 0,0 km/h (0 Bft)
25.06.2019 05:15 18,8 C 18,8 C 19,1 C 84 % 1015,5 hPa 0,0 l/m 0,0 km/h (0 Bft) S 173 0 min 16,0 C 18,8 C 0,0 km/h (0 Bft)
25.06.2019 05:00 19,1 C 19,1 C 19,3 C 83 % 1015,5 hPa 0,0 l/m 0,0 km/h (0 Bft) S 173 0 min 16,1 C 19,1 C 0,0 km/h (0 Bft)
25.06.2019 04:45 19,3 C 19,3 C 19,6 C 82 % 1015,5 hPa 0,0 l/m 0,0 km/h (0 Bft) S 173 0 min 16,1 C 19,3 C 0,0 km/h (0 Bft)
25.06.2019 04:30 19,6 C 19,6 C 19,9 C 82 % 1015,5 hPa 0,0 l/m 0,0 km/h (0 Bft) S 173 0 min 16,4 C 19,6 C 0,0 km/h (0 Bft)
25.06.2019 04:15 19,9 C 19,9 C 20,3 C 81 % 1015,5 hPa 0,0 l/m 0,0 km/h (0 Bft) S 173 0 min 16,5 C 19,9 C 0,0 km/h (0 Bft)
25.06.2019 04:00 20,3 C 20,3 C 20,7 C 79 % 1015,4 hPa 0,0 l/m 0,0 km/h (0 Bft) S 173 0 min 16,5 C 20,3 C 0,0 km/h (0 Bft)
25.06.2019 03:45 20,7 C 20,7 C 21,1 C 79 % 1015,3 hPa 0,0 l/m 0,0 km/h (0 Bft) S 173 0 min 16,9 C 20,7 C 0,0 km/h (0 Bft)
25.06.2019 03:30 21,1 C 21,1 C 21,3 C 78 % 1015,3 hPa 0,0 l/m 0,0 km/h (0 Bft) S 173 0 min 17,1 C 21,1 C 1,6 km/h (1 Bft)
25.06.2019 03:15 21,3 C 21,3 C 21,6 C 78 % 1015,4 hPa 0,0 l/m 0,0 km/h (0 Bft) S 173 0 min 17,3 C 21,3 C 1,6 km/h (1 Bft)
25.06.2019 03:00 21,6 C 21,6 C 21,9 C 77 % 1015,4 hPa 0,0 l/m 0,0 km/h (0 Bft) S 173 0 min 17,4 C 21,6 C 3,2 km/h (1 Bft)
_ Min-Zeit 06:00 06:00 06:15 16:45 03:30 - 03:00 - - - 16:45 06:00 03:45
Minimum _ 18,2 C 18,2 C 18,2 C 30 % 1015,3 hPa - 0,0 km/h (0 Bft) - - - 14,8 C 18,2 C 0,0 km/h (0 Bft)
_ Max-Zeit 15:30 15:45 15:30 06:45 01:15 03:00 14:45 - - 03:00 11:15 15:30 14:45
Maximum _ 35,4 C 35,2 C 35,4 C 90 % 1019,8 hPa 0,0 l/m 8,4 km/h
S (2 Bft)
- - 0 min 19,9 C 35,4 C 29,0 km/h
S-SO (5 Bft)
Durchschnitt _ 27,2 C 27,0 C 27,4 C 60 % 1017,1 hPa #0,0 l/m 1,6 km/h (1 Bft) S - #0 min. 17,7 C 27,2 C 7,6 km/h (2 Bft)